createdAt,value
2017-10-05T00:00:47.137Z,0
2017-10-05T00:01:47.154Z,0
2017-10-05T00:02:47.181Z,0
2017-10-05T00:03:47.199Z,0
2017-10-05T00:04:47.214Z,0
2017-10-05T00:05:47.234Z,0
2017-10-05T00:06:47.263Z,0
2017-10-05T00:07:47.285Z,0
2017-10-05T00:08:47.299Z,0
2017-10-05T00:09:47.324Z,0
2017-10-05T00:10:47.664Z,0
2017-10-05T00:11:47.367Z,0
2017-10-05T00:12:47.386Z,0
2017-10-05T00:13:47.723Z,0
2017-10-05T00:14:47.429Z,0
2017-10-05T00:15:47.454Z,0
2017-10-05T00:16:47.496Z,0
2017-10-05T00:17:47.494Z,0
2017-10-05T00:18:47.512Z,0
2017-10-05T00:19:47.538Z,0
2017-10-05T00:20:47.554Z,0
2017-10-05T00:21:47.574Z,0
2017-10-05T00:22:47.589Z,0
2017-10-05T00:23:47.619Z,0
2017-10-05T00:24:47.940Z,0
2017-10-05T00:25:47.652Z,0
2017-10-05T00:26:47.994Z,0
2017-10-05T00:27:47.744Z,0
2017-10-05T00:28:47.710Z,0
2017-10-05T00:30:13.471Z,0
2017-10-05T00:30:48.056Z,0
2017-10-05T00:31:47.780Z,0
2017-10-05T00:32:47.817Z,0
2017-10-05T00:33:48.130Z,0
2017-10-05T00:34:48.049Z,0
2017-10-05T00:35:48.201Z,0
2017-10-05T00:36:47.874Z,0
2017-10-05T00:37:47.918Z,0
2017-10-05T00:38:47.935Z,0
2017-10-05T00:39:47.937Z,0
2017-10-05T00:40:48.274Z,0
2017-10-05T00:42:20.394Z,0
2017-10-05T00:42:48.364Z,0
2017-10-05T00:43:48.015Z,0
2017-10-05T00:44:48.037Z,0
2017-10-05T00:45:48.056Z,0
2017-10-05T00:46:48.393Z,0
2017-10-05T00:47:48.101Z,0
2017-10-05T00:48:48.126Z,0
2017-10-05T00:49:48.137Z,0
2017-10-05T00:50:48.158Z,0
2017-10-05T00:51:48.505Z,0
2017-10-05T00:52:48.197Z,0
2017-10-05T00:53:48.231Z,0
2017-10-05T00:54:48.249Z,0
2017-10-05T00:55:48.261Z,0
2017-10-05T00:56:48.275Z,0
2017-10-05T00:57:48.352Z,0
2017-10-05T00:58:48.325Z,0
2017-10-05T00:59:48.342Z,0
2017-10-05T01:00:48.671Z,0
2017-10-05T01:01:48.394Z,0
2017-10-05T01:02:48.408Z,0
2017-10-05T01:03:48.741Z,0
2017-10-05T01:04:48.457Z,0
2017-10-05T01:05:48.479Z,0
2017-10-05T01:06:48.485Z,0
2017-10-05T01:07:48.512Z,0
2017-10-05T01:08:48.534Z,0
2017-10-05T01:09:48.878Z,0
2017-10-05T01:10:48.568Z,0
2017-10-05T01:11:48.591Z,0
2017-10-05T01:12:48.667Z,0
2017-10-05T01:13:48.629Z,0
2017-10-05T01:14:48.659Z,0
2017-10-05T01:15:48.982Z,0
2017-10-05T01:16:48.719Z,0
2017-10-05T01:17:49.345Z,0
2017-10-05T01:18:48.740Z,0
2017-10-05T01:19:48.772Z,0
2017-10-05T01:20:48.780Z,0
2017-10-05T01:21:48.803Z,0
2017-10-05T01:22:48.822Z,0
2017-10-05T01:23:48.841Z,0
2017-10-05T01:24:48.858Z,0
2017-10-05T01:25:48.884Z,0
2017-10-05T01:26:48.899Z,0
2017-10-05T01:27:48.930Z,0
2017-10-05T01:28:48.939Z,0
2017-10-05T01:29:48.960Z,0
2017-10-05T01:30:49.353Z,0
2017-10-05T01:31:50.444Z,0
2017-10-05T01:32:49.429Z,0
2017-10-05T01:33:49.050Z,0
2017-10-05T01:34:49.071Z,0
2017-10-05T01:35:49.084Z,0
2017-10-05T01:36:49.733Z,0
2017-10-05T01:37:49.129Z,0
2017-10-05T01:38:49.145Z,0
2017-10-05T01:39:49.482Z,0
2017-10-05T01:40:49.187Z,0
2017-10-05T01:41:49.531Z,0
2017-10-05T01:42:49.228Z,0
2017-10-05T01:43:49.253Z,0
2017-10-05T01:44:49.586Z,0
2017-10-05T01:45:49.654Z,0
2017-10-05T01:46:49.650Z,0
2017-10-05T01:47:49.349Z,0
2017-10-05T01:48:49.363Z,0
2017-10-05T01:49:49.378Z,0
2017-10-05T01:50:49.403Z,0
2017-10-05T01:51:49.414Z,0
2017-10-05T01:52:49.446Z,0
2017-10-05T01:53:49.469Z,0
2017-10-05T01:54:49.485Z,0
2017-10-05T01:55:49.498Z,0
2017-10-05T01:56:49.519Z,0
2017-10-05T01:57:49.554Z,0
2017-10-05T01:58:49.557Z,0
2017-10-05T01:59:49.580Z,0
2017-10-05T02:00:49.916Z,0
2017-10-05T02:01:49.677Z,0
2017-10-05T02:02:49.651Z,0
2017-10-05T02:03:49.674Z,0
2017-10-05T02:04:49.687Z,0
2017-10-05T02:05:49.706Z,0
2017-10-05T02:06:49.732Z,0
2017-10-05T02:07:49.745Z,0
2017-10-05T02:08:49.762Z,0
2017-10-05T02:09:49.821Z,0
2017-10-05T02:10:50.123Z,0
2017-10-05T02:11:49.835Z,0
2017-10-05T02:12:49.855Z,0
2017-10-05T02:13:49.877Z,0
2017-10-05T02:14:49.885Z,0
2017-10-05T02:15:49.914Z,0
2017-10-05T02:16:49.933Z,0
2017-10-05T02:17:50.322Z,0
2017-10-05T02:18:49.979Z,0
2017-10-05T02:19:50.014Z,0
2017-10-05T02:20:50.016Z,0
2017-10-05T02:21:50.352Z,0
2017-10-05T02:22:50.063Z,0
2017-10-05T02:23:50.080Z,0
2017-10-05T02:24:50.104Z,0
2017-10-05T02:25:50.138Z,0
2017-10-05T02:26:50.141Z,0
2017-10-05T02:27:50.159Z,0
2017-10-05T02:28:50.196Z,0
2017-10-05T02:29:50.530Z,0
2017-10-05T02:30:50.228Z,0
2017-10-05T02:31:50.249Z,0
2017-10-05T02:32:50.685Z,0
2017-10-05T02:33:50.291Z,0
2017-10-05T02:34:50.312Z,0
2017-10-05T02:35:50.349Z,0
2017-10-05T02:36:50.350Z,0
2017-10-05T02:37:50.678Z,0
2017-10-05T02:38:50.703Z,0
2017-10-05T02:39:50.728Z,0
2017-10-05T02:40:50.435Z,0
2017-10-05T02:41:50.471Z,0
2017-10-05T02:42:50.474Z,0
2017-10-05T02:43:50.692Z,0
2017-10-05T02:44:50.521Z,0
2017-10-05T02:45:50.865Z,0
2017-10-05T02:46:50.571Z,0
2017-10-05T02:47:50.634Z,0
2017-10-05T02:48:50.909Z,0
2017-10-05T02:49:50.622Z,0
2017-10-05T02:50:50.648Z,0
2017-10-05T02:51:50.670Z,0
2017-10-05T02:52:50.685Z,0
2017-10-05T02:53:50.729Z,0
2017-10-05T02:54:50.728Z,0
2017-10-05T02:55:51.400Z,0
2017-10-05T02:56:50.777Z,0
2017-10-05T02:57:50.796Z,0
2017-10-05T02:58:50.815Z,0
2017-10-05T02:59:50.829Z,0
2017-10-05T03:00:51.169Z,0
2017-10-05T03:01:50.868Z,0
2017-10-05T03:02:50.952Z,0
2017-10-05T03:03:50.925Z,0
2017-10-05T03:04:51.255Z,0
2017-10-05T03:05:50.962Z,0
2017-10-05T03:06:50.992Z,0
2017-10-05T03:07:51.010Z,0
2017-10-05T03:08:51.024Z,0
2017-10-05T03:09:51.352Z,0
2017-10-05T03:10:51.069Z,0
2017-10-05T03:11:51.426Z,0
2017-10-05T03:12:51.106Z,0
2017-10-05T03:13:51.129Z,0
2017-10-05T03:14:51.151Z,0
2017-10-05T03:15:51.173Z,0
2017-10-05T03:16:51.206Z,0
2017-10-05T03:17:51.227Z,0
2017-10-05T03:18:51.298Z,0
2017-10-05T03:19:51.567Z,0
2017-10-05T03:20:51.302Z,0
2017-10-05T03:21:51.313Z,0
2017-10-05T03:22:51.321Z,0
2017-10-05T03:23:51.356Z,0
2017-10-05T03:24:51.365Z,0
2017-10-05T03:25:51.704Z,0
2017-10-05T03:26:51.427Z,0
2017-10-05T03:27:51.437Z,0
2017-10-05T03:28:51.462Z,0
2017-10-05T03:29:51.471Z,0
2017-10-05T03:30:51.819Z,0
2017-10-05T03:31:51.516Z,0
2017-10-05T03:32:51.542Z,0
2017-10-05T03:33:51.618Z,0
2017-10-05T03:34:51.579Z,0
2017-10-05T03:35:51.608Z,0
2017-10-05T03:36:51.632Z,0
2017-10-05T03:37:51.644Z,0
2017-10-05T03:38:51.669Z,0
2017-10-05T03:39:51.697Z,0
2017-10-05T03:40:51.705Z,0
2017-10-05T03:41:52.035Z,0
2017-10-05T03:42:51.752Z,0
2017-10-05T03:43:51.772Z,0
2017-10-05T03:44:51.793Z,0
2017-10-05T03:45:51.814Z,0
2017-10-05T03:46:51.835Z,0
2017-10-05T03:47:51.854Z,0
2017-10-05T03:48:52.552Z,0
2017-10-05T03:49:51.900Z,0
2017-10-05T03:50:52.234Z,0
2017-10-05T03:51:51.939Z,0
2017-10-05T03:52:52.290Z,0
2017-10-05T03:53:51.982Z,0
2017-10-05T03:54:52.004Z,0
2017-10-05T03:55:52.031Z,0
2017-10-05T03:56:52.044Z,0
2017-10-05T03:57:52.380Z,0
2017-10-05T03:58:52.091Z,0
2017-10-05T03:59:52.110Z,0
2017-10-05T04:00:52.126Z,0
2017-10-05T04:01:52.147Z,0
2017-10-05T04:02:52.174Z,0
2017-10-05T04:03:52.245Z,0
2017-10-05T04:04:52.213Z,0
2017-10-05T04:05:52.256Z,0
2017-10-05T04:06:52.250Z,0
2017-10-05T04:07:52.272Z,0
2017-10-05T04:08:52.611Z,0
2017-10-05T04:09:52.634Z,0
2017-10-05T04:10:52.657Z,0
2017-10-05T04:11:52.364Z,0
2017-10-05T04:12:52.383Z,0
2017-10-05T04:13:52.711Z,0
2017-10-05T04:14:52.421Z,0
2017-10-05T04:15:52.441Z,0
2017-10-05T04:16:52.472Z,0
2017-10-05T04:17:52.492Z,0
2017-10-05T04:18:52.868Z,0
2017-10-05T04:19:52.526Z,0
2017-10-05T04:20:52.547Z,0
2017-10-05T04:21:52.564Z,0
2017-10-05T04:22:52.588Z,0
2017-10-05T04:23:52.921Z,0
2017-10-05T04:24:52.628Z,0
2017-10-05T04:25:52.653Z,0
2017-10-05T04:26:52.675Z,0
2017-10-05T04:27:52.685Z,0
2017-10-05T04:28:52.707Z,0
2017-10-05T04:29:52.737Z,0
2017-10-05T04:30:52.751Z,0
2017-10-05T04:31:53.112Z,0
2017-10-05T04:32:52.795Z,0
2017-10-05T04:33:52.867Z,0
2017-10-05T04:34:53.157Z,0
2017-10-05T04:35:53.490Z,0
2017-10-05T04:36:52.887Z,0
2017-10-05T04:37:52.903Z,0
2017-10-05T04:38:52.921Z,0
2017-10-05T04:39:52.939Z,0
2017-10-05T04:40:52.967Z,0
2017-10-05T04:41:52.983Z,0
2017-10-05T04:42:52.999Z,0
2017-10-05T04:43:53.044Z,0
2017-10-05T04:44:53.358Z,0
2017-10-05T04:45:53.057Z,0
2017-10-05T04:46:53.081Z,0
2017-10-05T04:47:53.112Z,0
2017-10-05T04:48:53.489Z,0
2017-10-05T04:49:53.140Z,0
2017-10-05T04:50:53.178Z,0
2017-10-05T04:51:53.501Z,0
2017-10-05T04:52:53.207Z,0
2017-10-05T04:53:53.224Z,0
2017-10-05T04:54:53.243Z,0
2017-10-05T04:55:53.270Z,0
2017-10-05T04:56:53.605Z,0
2017-10-05T04:57:53.316Z,0
2017-10-05T04:58:53.332Z,0
2017-10-05T04:59:53.669Z,0
2017-10-05T05:00:53.688Z,0
2017-10-05T05:01:53.392Z,0
2017-10-05T05:02:53.438Z,0
2017-10-05T05:03:53.819Z,0
2017-10-05T05:04:53.468Z,0
2017-10-05T05:05:53.477Z,0
2017-10-05T05:06:53.507Z,0
2017-10-05T05:07:53.518Z,0
2017-10-05T05:08:53.863Z,0
2017-10-05T05:09:53.865Z,0
2017-10-05T05:10:53.579Z,0
2017-10-05T05:11:53.599Z,0
2017-10-05T05:12:53.619Z,0
2017-10-05T05:13:53.643Z,0
2017-10-05T05:14:53.662Z,0
2017-10-05T05:15:53.682Z,5
2017-10-05T05:16:53.730Z,5
2017-10-05T05:17:53.726Z,5
2017-10-05T05:18:53.743Z,5
2017-10-05T05:19:53.786Z,5
2017-10-05T05:20:53.952Z,5
2017-10-05T05:21:53.812Z,5
2017-10-05T05:22:53.827Z,10
2017-10-05T05:23:54.177Z,10
2017-10-05T05:24:53.869Z,10
2017-10-05T05:25:53.890Z,10
2017-10-05T05:26:53.914Z,10
2017-10-05T05:27:53.928Z,15
2017-10-05T05:28:53.948Z,15
2017-10-05T05:29:53.974Z,15
2017-10-05T05:30:53.995Z,15
2017-10-05T05:31:54.327Z,15
2017-10-05T05:32:54.035Z,20
2017-10-05T05:33:54.056Z,20
2017-10-05T05:34:54.076Z,20
2017-10-05T05:35:54.147Z,25
2017-10-05T05:36:54.148Z,25
2017-10-05T05:37:54.141Z,25
2017-10-05T05:38:54.154Z,30
2017-10-05T05:39:54.738Z,30
2017-10-05T05:40:54.519Z,30
2017-10-05T05:41:54.730Z,30
2017-10-05T05:42:54.246Z,30
2017-10-05T05:43:54.260Z,35
2017-10-05T05:44:54.279Z,35
2017-10-05T05:45:54.300Z,35
2017-10-05T05:46:54.327Z,35
2017-10-05T05:47:54.341Z,35
2017-10-05T05:48:54.671Z,35
2017-10-05T05:49:54.384Z,35
2017-10-05T05:50:54.398Z,40
2017-10-05T05:51:54.430Z,40
2017-10-05T05:52:54.451Z,45
2017-10-05T05:53:54.467Z,45
2017-10-05T05:54:54.491Z,40
2017-10-05T05:55:54.504Z,45
2017-10-05T05:56:54.527Z,50
2017-10-05T05:57:54.547Z,50
2017-10-05T05:58:54.577Z,50
2017-10-05T05:59:54.897Z,50
2017-10-05T06:00:54.610Z,50
2017-10-05T06:01:54.624Z,50
2017-10-05T06:02:54.974Z,55
2017-10-05T06:03:54.676Z,55
2017-10-05T06:04:54.686Z,55
2017-10-05T06:05:55.020Z,55
2017-10-05T06:06:54.733Z,55
2017-10-05T06:07:54.796Z,55
2017-10-05T06:08:54.783Z,60
2017-10-05T06:09:54.791Z,60
2017-10-05T06:10:54.813Z,65
2017-10-05T06:11:54.837Z,60
2017-10-05T06:12:54.847Z,65
2017-10-05T06:13:54.879Z,70
2017-10-05T06:14:54.897Z,75
2017-10-05T06:15:54.914Z,80
2017-10-05T06:16:55.250Z,80
2017-10-05T06:17:54.949Z,85
2017-10-05T06:18:54.976Z,85
2017-10-05T06:19:55.002Z,85
2017-10-05T06:20:55.037Z,85
2017-10-05T06:21:55.041Z,90
2017-10-05T06:22:55.059Z,90
2017-10-05T06:23:55.081Z,90
2017-10-05T06:24:55.150Z,95
2017-10-05T06:25:55.132Z,95
2017-10-05T06:26:55.147Z,95
2017-10-05T06:27:55.161Z,95
2017-10-05T06:28:55.190Z,100
2017-10-05T06:29:55.223Z,100
2017-10-05T06:30:55.545Z,90
2017-10-05T06:31:55.261Z,100
2017-10-05T06:32:55.265Z,105
2017-10-05T06:33:55.293Z,105
2017-10-05T06:34:55.304Z,105
2017-10-05T06:35:55.336Z,110
2017-10-05T06:36:55.365Z,110
2017-10-05T06:37:55.989Z,110
2017-10-05T06:38:55.387Z,110
2017-10-05T06:39:55.418Z,115
2017-10-05T06:40:55.442Z,115
2017-10-05T06:41:55.456Z,115
2017-10-05T06:42:55.785Z,115
2017-10-05T06:43:55.497Z,120
2017-10-05T06:44:55.518Z,120
2017-10-05T06:45:55.536Z,120
2017-10-05T06:46:55.870Z,120
2017-10-05T06:47:55.581Z,120
2017-10-05T06:48:55.910Z,120
2017-10-05T06:49:55.937Z,120
2017-10-05T06:50:55.638Z,125
2017-10-05T06:51:55.670Z,125
2017-10-05T06:52:55.692Z,125
2017-10-05T06:53:56.024Z,130
2017-10-05T06:54:55.733Z,130
2017-10-05T06:55:55.759Z,135
2017-10-05T06:56:56.707Z,135
2017-10-05T06:57:55.811Z,140
2017-10-05T06:58:55.853Z,145
2017-10-05T06:59:55.837Z,145
2017-10-05T07:00:55.852Z,145
2017-10-05T07:01:55.928Z,150
2017-10-05T07:02:55.902Z,155
2017-10-05T07:03:55.913Z,160
2017-10-05T07:04:55.941Z,165
2017-10-05T07:05:55.961Z,170
2017-10-05T07:06:55.980Z,170
2017-10-05T07:07:55.994Z,160
2017-10-05T07:08:56.035Z,125
2017-10-05T07:09:56.387Z,125
2017-10-05T07:10:56.061Z,130
2017-10-05T07:11:56.086Z,140
2017-10-05T07:12:56.115Z,135
2017-10-05T07:13:56.127Z,120
2017-10-05T07:14:56.149Z,115
2017-10-05T07:15:56.234Z,115
2017-10-05T07:16:56.198Z,135
2017-10-05T07:17:56.213Z,175
2017-10-05T07:18:56.246Z,175
2017-10-05T07:19:56.270Z,175
2017-10-05T07:20:56.354Z,175
2017-10-05T07:21:56.304Z,180
2017-10-05T07:22:56.949Z,180
2017-10-05T07:23:56.657Z,180
2017-10-05T07:24:56.372Z,180
2017-10-05T07:25:56.717Z,180
2017-10-05T07:26:56.722Z,180
2017-10-05T07:27:56.742Z,180
2017-10-05T07:28:56.451Z,185
2017-10-05T07:29:56.472Z,190
2017-10-05T07:30:56.494Z,190
2017-10-05T07:31:56.525Z,195
2017-10-05T07:32:56.547Z,195
2017-10-05T07:33:56.876Z,195
2017-10-05T07:34:56.594Z,200
2017-10-05T07:35:56.657Z,205
2017-10-05T07:36:56.633Z,215
2017-10-05T07:37:56.661Z,225
2017-10-05T07:38:57.012Z,240
2017-10-05T07:39:56.694Z,250
2017-10-05T07:40:56.794Z,260
2017-10-05T07:41:56.740Z,245
2017-10-05T07:42:57.070Z,220
2017-10-05T07:43:56.779Z,200
2017-10-05T07:44:56.809Z,190
2017-10-05T07:45:56.827Z,185
2017-10-05T07:46:57.161Z,180
2017-10-05T07:47:57.178Z,185
2017-10-05T07:48:56.889Z,230
2017-10-05T07:49:56.921Z,240
2017-10-05T07:50:56.941Z,250
2017-10-05T07:51:57.270Z,210
2017-10-05T07:52:56.990Z,210
2017-10-05T07:53:57.011Z,185
2017-10-05T07:54:57.038Z,180
2017-10-05T07:55:57.079Z,180
2017-10-05T07:56:57.441Z,210
2017-10-05T07:57:57.100Z,270
2017-10-05T07:58:57.124Z,240
2017-10-05T07:59:57.161Z,280
2017-10-05T08:00:57.481Z,285
2017-10-05T08:01:57.195Z,280
2017-10-05T08:02:57.210Z,275
2017-10-05T08:03:57.230Z,255
2017-10-05T08:04:57.256Z,255
2017-10-05T08:05:57.280Z,255
2017-10-05T08:06:57.303Z,255
2017-10-05T08:07:57.329Z,260
2017-10-05T08:08:57.375Z,265
2017-10-05T08:09:57.680Z,270
2017-10-05T08:10:57.393Z,265
2017-10-05T08:11:57.726Z,270
2017-10-05T08:12:57.440Z,270
2017-10-05T08:13:57.461Z,275
2017-10-05T08:14:57.801Z,290
2017-10-05T08:15:58.708Z,295
2017-10-05T08:16:57.527Z,310
2017-10-05T08:17:57.562Z,310
2017-10-05T08:18:57.580Z,290
2017-10-05T08:19:57.597Z,295
2017-10-05T08:20:57.626Z,280
2017-10-05T08:21:57.660Z,250
2017-10-05T08:22:57.672Z,245
2017-10-05T08:23:57.696Z,270
2017-10-05T08:24:57.714Z,260
2017-10-05T08:25:58.040Z,275
2017-10-05T08:26:57.765Z,265
2017-10-05T08:27:57.785Z,270
2017-10-05T08:28:57.815Z,270
2017-10-05T08:29:57.834Z,265
2017-10-05T08:30:57.919Z,265
2017-10-05T08:31:57.880Z,260
2017-10-05T08:32:58.225Z,255
2017-10-05T08:33:57.931Z,255
2017-10-05T08:34:57.953Z,250
2017-10-05T08:35:57.966Z,245
2017-10-05T08:36:57.992Z,245
2017-10-05T08:37:58.024Z,245
2017-10-05T08:38:58.363Z,245
2017-10-05T08:39:58.068Z,245
2017-10-05T08:40:58.091Z,245
2017-10-05T08:41:58.120Z,245
2017-10-05T08:42:58.135Z,245
2017-10-05T08:43:58.161Z,245
2017-10-05T08:44:58.506Z,245
2017-10-05T08:45:58.215Z,245
2017-10-05T08:46:58.227Z,245
2017-10-05T08:47:58.256Z,250
2017-10-05T08:48:59.273Z,250
2017-10-05T08:49:58.301Z,250
2017-10-05T08:50:58.328Z,250
2017-10-05T08:51:58.666Z,250
2017-10-05T08:52:58.681Z,255
2017-10-05T08:53:58.715Z,255
2017-10-05T08:54:58.426Z,255
2017-10-05T08:55:58.440Z,255
2017-10-05T08:56:58.783Z,255
2017-10-05T08:57:58.520Z,255
2017-10-05T08:58:58.829Z,255
2017-10-05T08:59:58.539Z,260
2017-10-05T09:00:58.563Z,260
2017-10-05T09:01:58.588Z,260
2017-10-05T09:02:58.607Z,260
2017-10-05T09:03:58.945Z,250
2017-10-05T09:04:58.708Z,255
2017-10-05T09:05:58.685Z,255
2017-10-05T09:06:59.019Z,255
2017-10-05T09:07:58.733Z,255
2017-10-05T09:08:58.752Z,255
2017-10-05T09:09:58.900Z,255
2017-10-05T09:10:58.822Z,255
2017-10-05T09:11:58.823Z,260
2017-10-05T09:12:59.170Z,260
2017-10-05T09:13:58.873Z,260
2017-10-05T09:14:58.897Z,260
2017-10-05T09:15:59.231Z,260
2017-10-05T09:16:58.949Z,260
2017-10-05T09:17:59.281Z,260
2017-10-05T09:18:58.995Z,260
2017-10-05T09:19:59.016Z,260
2017-10-05T09:20:59.045Z,260
2017-10-05T09:21:59.140Z,265
2017-10-05T09:22:59.110Z,265
2017-10-05T09:23:59.119Z,265
2017-10-05T09:24:59.137Z,260
2017-10-05T09:25:59.165Z,265
2017-10-05T09:26:59.190Z,265
2017-10-05T09:27:59.211Z,265
2017-10-05T09:28:59.242Z,265
2017-10-05T09:29:59.260Z,265
2017-10-05T09:30:59.289Z,265
2017-10-05T09:31:59.317Z,270
2017-10-05T09:32:59.651Z,270
2017-10-05T09:33:59.365Z,265
2017-10-05T09:34:59.380Z,270
2017-10-05T09:35:59.413Z,270
2017-10-05T09:36:59.457Z,270
2017-10-05T09:37:59.452Z,275
2017-10-05T09:38:59.481Z,275
2017-10-05T09:39:59.503Z,275
2017-10-05T09:40:59.574Z,275
2017-10-05T09:41:59.558Z,275
2017-10-05T09:42:59.894Z,280
2017-10-05T09:43:59.630Z,275
2017-10-05T09:44:59.631Z,280
2017-10-05T09:45:59.661Z,280
2017-10-05T09:46:59.677Z,280
2017-10-05T09:47:59.710Z,280
2017-10-05T09:48:59.726Z,285
2017-10-05T09:49:59.762Z,285
2017-10-05T09:50:59.795Z,285
2017-10-05T09:51:59.799Z,280
2017-10-05T09:52:59.827Z,280
2017-10-05T09:53:59.854Z,285
2017-10-05T09:54:59.877Z,285
2017-10-05T09:55:59.960Z,285
2017-10-05T09:56:59.937Z,290
2017-10-05T09:57:59.970Z,425
2017-10-05T09:58:59.978Z,740
2017-10-05T10:00:00.014Z,1055
2017-10-05T10:01:00.353Z,1280
2017-10-05T10:02:00.058Z,1415
2017-10-05T10:03:00.081Z,1430
2017-10-05T10:04:00.100Z,1455
2017-10-05T10:05:00.829Z,1520
2017-10-05T10:06:00.177Z,1520
2017-10-05T10:07:00.181Z,1505
2017-10-05T10:08:00.527Z,1545
2017-10-05T10:09:00.235Z,1535
2017-10-05T10:10:00.265Z,1530
2017-10-05T10:11:00.347Z,1555
2017-10-05T10:12:00.316Z,1595
2017-10-05T10:13:00.347Z,1605
2017-10-05T10:14:00.378Z,1690
2017-10-05T10:15:00.410Z,1645
2017-10-05T10:16:00.425Z,1640
2017-10-05T10:17:00.463Z,1690
2017-10-05T10:18:00.495Z,1760
2017-10-05T10:19:00.854Z,1710
2017-10-05T10:20:00.540Z,1830
2017-10-05T10:21:00.585Z,1895
2017-10-05T10:22:00.950Z,1755
2017-10-05T10:23:00.646Z,1730
2017-10-05T10:24:00.666Z,1715
2017-10-05T10:25:00.694Z,1660
2017-10-05T10:26:00.777Z,1760
2017-10-05T10:27:01.070Z,1920
2017-10-05T10:28:01.404Z,1960
2017-10-05T10:29:01.135Z,1920
2017-10-05T10:30:00.841Z,1665
2017-10-05T10:31:00.889Z,1665
2017-10-05T10:32:00.902Z,1740
2017-10-05T10:33:01.247Z,1655
2017-10-05T10:34:00.970Z,1580
2017-10-05T10:35:00.991Z,1575
2017-10-05T10:36:01.041Z,1585
2017-10-05T10:37:01.052Z,1520
2017-10-05T10:38:01.702Z,1440
2017-10-05T10:39:01.127Z,1460
2017-10-05T10:40:01.154Z,1550
2017-10-05T10:41:01.232Z,1525
2017-10-05T10:42:01.214Z,1520
2017-10-05T10:43:01.244Z,1430
2017-10-05T10:44:01.276Z,1210
2017-10-05T10:45:01.298Z,1140
2017-10-05T10:46:01.675Z,1030
2017-10-05T10:47:01.679Z,965
2017-10-05T10:48:01.397Z,950
2017-10-05T10:49:01.427Z,945
2017-10-05T10:50:02.097Z,950
2017-10-05T10:51:01.494Z,935
2017-10-05T10:52:01.517Z,885
2017-10-05T10:53:01.560Z,880
2017-10-05T10:54:01.589Z,885
2017-10-05T10:55:01.615Z,965
2017-10-05T10:56:01.643Z,1090
2017-10-05T10:57:01.739Z,1205
2017-10-05T10:58:02.024Z,1245
2017-10-05T10:59:01.740Z,1250
2017-10-05T11:00:01.781Z,1245
2017-10-05T11:01:01.806Z,1245
2017-10-05T11:02:01.849Z,1210
2017-10-05T11:03:01.879Z,1175
2017-10-05T11:04:01.916Z,1210
2017-10-05T11:05:01.967Z,1265
2017-10-05T11:06:01.976Z,1215
2017-10-05T11:07:01.999Z,1210
2017-10-05T11:08:02.028Z,1365
2017-10-05T11:09:02.060Z,1490
2017-10-05T11:10:02.092Z,1520
2017-10-05T11:11:02.461Z,1635
2017-10-05T11:12:02.202Z,1755
2017-10-05T11:13:02.519Z,1770
2017-10-05T11:14:02.232Z,1710
2017-10-05T11:15:02.264Z,1640
2017-10-05T11:16:02.284Z,1400
2017-10-05T11:17:02.321Z,1425
2017-10-05T11:18:02.378Z,1550
2017-10-05T11:19:02.381Z,1565
2017-10-05T11:20:02.418Z,1680
2017-10-05T11:21:02.449Z,1590
2017-10-05T11:22:02.480Z,1630
2017-10-05T11:23:02.823Z,1660
2017-10-05T11:24:02.860Z,1675
2017-10-05T11:25:02.903Z,1735
2017-10-05T11:26:02.610Z,1770
2017-10-05T11:27:02.640Z,1760
2017-10-05T11:28:02.670Z,1920
2017-10-05T11:29:03.357Z,1915
2017-10-05T11:30:02.750Z,1950
2017-10-05T11:31:02.769Z,1955
2017-10-05T11:32:02.857Z,1895
2017-10-05T11:33:02.841Z,1980
2017-10-05T11:34:02.874Z,2005
2017-10-05T11:35:02.899Z,1895
2017-10-05T11:36:02.946Z,2060
2017-10-05T11:37:02.986Z,2125
2017-10-05T11:38:03.003Z,2175
2017-10-05T11:39:03.036Z,2150
2017-10-05T11:40:03.757Z,2135
2017-10-05T11:41:03.116Z,2150
2017-10-05T11:42:03.148Z,2115
2017-10-05T11:43:03.228Z,2270
2017-10-05T11:44:03.542Z,2295
2017-10-05T11:45:03.236Z,2295
2017-10-05T11:46:03.280Z,2335
2017-10-05T11:47:03.302Z,2410
2017-10-05T11:48:03.406Z,2390
2017-10-05T11:49:03.374Z,2365
2017-10-05T11:50:03.413Z,2305
2017-10-05T11:51:03.441Z,2370
2017-10-05T11:52:03.474Z,2435
2017-10-05T11:53:03.496Z,2375
2017-10-05T11:54:03.846Z,2305
2017-10-05T11:55:03.578Z,2230
2017-10-05T11:56:03.629Z,2440
2017-10-05T11:57:03.954Z,2580
2017-10-05T11:58:03.997Z,2565
2017-10-05T11:59:03.717Z,2560
2017-10-05T12:00:03.753Z,2465
2017-10-05T12:01:04.215Z,2550
2017-10-05T12:02:03.814Z,2620
2017-10-05T12:03:04.159Z,2520
2017-10-05T12:04:03.897Z,2505
2017-10-05T12:05:04.221Z,2695
2017-10-05T12:06:03.935Z,2675
2017-10-05T12:07:04.025Z,2595
2017-10-05T12:08:04.030Z,2665
2017-10-05T12:09:04.042Z,2785
2017-10-05T12:10:04.408Z,2730
2017-10-05T12:11:04.119Z,2650
2017-10-05T12:12:04.584Z,2480
2017-10-05T12:13:04.491Z,2155
2017-10-05T12:14:04.213Z,1880
2017-10-05T12:15:04.272Z,1835
2017-10-05T12:16:04.594Z,2080
2017-10-05T12:17:04.319Z,860
2017-10-05T12:18:04.354Z,2535
2017-10-05T12:19:04.382Z,2585
2017-10-05T12:20:04.481Z,2720
2017-10-05T12:21:04.466Z,2610
2017-10-05T12:22:04.497Z,2680
2017-10-05T12:23:04.591Z,2625
2017-10-05T12:24:04.560Z,2740
2017-10-05T12:25:04.594Z,1990
2017-10-05T12:26:04.948Z,2350
2017-10-05T12:27:04.664Z,1620
2017-10-05T12:28:04.721Z,1500
2017-10-05T12:29:04.752Z,1400
2017-10-05T12:30:04.767Z,2430
2017-10-05T12:31:04.851Z,2770
2017-10-05T12:32:04.831Z,1190
2017-10-05T12:33:04.864Z,1095
2017-10-05T12:34:05.214Z,1250
2017-10-05T12:35:04.931Z,1150
2017-10-05T12:36:04.969Z,1180
2017-10-05T12:37:04.998Z,825
2017-10-05T12:38:05.085Z,2390
2017-10-05T12:39:05.069Z,2285
2017-10-05T12:40:05.741Z,1005
2017-10-05T12:41:05.136Z,675
2017-10-05T12:42:05.239Z,905
2017-10-05T12:43:05.205Z,1535
2017-10-05T12:44:05.339Z,670
2017-10-05T12:45:05.660Z,615
2017-10-05T12:46:05.298Z,540
2017-10-05T12:47:05.649Z,500
2017-10-05T12:48:06.325Z,550
2017-10-05T12:49:06.112Z,735
2017-10-05T12:50:05.743Z,650
2017-10-05T12:51:05.453Z,560
2017-10-05T12:52:05.801Z,485
2017-10-05T12:53:05.589Z,430
2017-10-05T12:54:05.557Z,380
2017-10-05T12:55:06.039Z,350
2017-10-05T12:56:05.613Z,355
2017-10-05T12:57:05.940Z,365
2017-10-05T12:58:05.687Z,350
2017-10-05T12:59:05.703Z,370
2017-10-05T13:00:05.719Z,405
2017-10-05T13:01:05.752Z,455
2017-10-05T13:02:05.922Z,495
2017-10-05T13:03:05.824Z,590
2017-10-05T13:04:05.934Z,655
2017-10-05T13:05:06.276Z,675
2017-10-05T13:06:06.255Z,1460
2017-10-05T13:07:05.956Z,670
2017-10-05T13:08:05.962Z,450
2017-10-05T13:09:05.980Z,460
2017-10-05T13:10:06.023Z,460
2017-10-05T13:11:06.368Z,510
2017-10-05T13:12:06.069Z,525
2017-10-05T13:13:06.102Z,560
2017-10-05T13:14:06.440Z,590
2017-10-05T13:16:10.353Z,385
2017-10-05T13:16:18.946Z,385
2017-10-05T13:17:19.001Z,390
2017-10-05T13:18:19.010Z,450
2017-10-05T13:19:19.167Z,530
2017-10-05T13:20:19.069Z,535
2017-10-05T13:21:19.712Z,1060
2017-10-05T13:22:19.127Z,1290
2017-10-05T13:23:19.147Z,1540
2017-10-05T13:24:19.203Z,3075
2017-10-05T13:25:19.217Z,3080
2017-10-05T13:26:19.236Z,2570
2017-10-05T13:27:19.275Z,3140
2017-10-05T13:28:19.349Z,3195
2017-10-05T13:29:19.324Z,1475
2017-10-05T13:30:19.355Z,3120
2017-10-05T13:31:19.386Z,3025
2017-10-05T13:32:19.426Z,2690
2017-10-05T13:33:19.764Z,2860
2017-10-05T13:34:19.488Z,3060
2017-10-05T13:35:19.584Z,2905
2017-10-05T13:36:19.549Z,2715
2017-10-05T13:37:19.582Z,2550
2017-10-05T13:38:19.610Z,2070
2017-10-05T13:39:19.670Z,2280
2017-10-05T13:40:19.697Z,1915
2017-10-05T13:41:19.715Z,1200
2017-10-05T13:42:20.061Z,2675
2017-10-05T13:43:20.252Z,2880
2017-10-05T13:44:19.809Z,2815
2017-10-05T13:45:19.887Z,3090
2017-10-05T13:46:20.098Z,3210
2017-10-05T13:47:19.904Z,3015
2017-10-05T13:48:19.944Z,2820
2017-10-05T13:49:19.984Z,2625
2017-10-05T13:50:20.013Z,2665
2017-10-05T13:51:20.043Z,465
2017-10-05T13:52:20.068Z,490
2017-10-05T13:53:20.135Z,2465
2017-10-05T13:54:20.143Z,2590
2017-10-05T13:55:20.164Z,2645
2017-10-05T13:56:20.200Z,3015
2017-10-05T13:57:20.545Z,3050
2017-10-05T13:58:20.332Z,2680
2017-10-05T13:59:20.312Z,2765
2017-10-05T14:00:20.331Z,3010
2017-10-05T14:01:20.365Z,2960
2017-10-05T14:02:20.483Z,2945
2017-10-05T14:03:20.777Z,3070
2017-10-05T14:04:20.501Z,3095